createdAt,value
2018-05-29T00:01:46.365Z,63.50
2018-05-29T00:04:48.809Z,63.60
2018-05-29T00:07:51.277Z,63.50
2018-05-29T00:10:53.739Z,63.90
2018-05-29T00:13:56.198Z,64.10
2018-05-29T00:16:58.666Z,64.40
2018-05-29T00:20:01.133Z,64.30
2018-05-29T00:23:03.586Z,64.50
2018-05-29T00:26:06.817Z,64.40
2018-05-29T00:29:09.278Z,64.30
2018-05-29T00:32:11.737Z,64.40
2018-05-29T00:35:14.953Z,64.90
2018-05-29T00:38:17.418Z,64.80
2018-05-29T00:41:34.967Z,65.00
2018-05-29T00:44:37.413Z,65.50
2018-05-29T00:47:40.642Z,65.50
2018-05-29T00:50:43.102Z,65.50
2018-05-29T00:53:45.565Z,65.60
2018-05-29T00:56:48.797Z,65.90
2018-05-29T00:59:51.249Z,65.80
2018-05-29T01:02:53.713Z,65.90
2018-05-29T01:05:56.178Z,66.20
2018-05-29T01:08:59.410Z,66.40
2018-05-29T01:12:01.877Z,66.40
2018-05-29T01:15:04.337Z,66.40
2018-05-29T01:18:07.565Z,67.00
2018-05-29T01:21:10.034Z,67.00
2018-05-29T01:24:12.509Z,67.10
2018-05-29T01:27:14.990Z,67.50
2018-05-29T01:30:17.455Z,67.50
2018-05-29T01:33:19.929Z,67.70
2018-05-29T01:36:22.382Z,67.70
2018-05-29T01:39:25.618Z,68.70
2018-05-29T01:42:28.087Z,68.00
2018-05-29T01:45:30.530Z,68.30
2018-05-29T01:48:33.770Z,68.70
2018-05-29T01:51:36.237Z,69.50
2018-05-29T01:54:38.713Z,69.00
2018-05-29T01:57:41.162Z,69.30
2018-05-29T02:00:44.389Z,69.50
2018-05-29T02:03:46.841Z,69.30
2018-05-29T02:06:49.293Z,69.70
2018-05-29T02:09:52.510Z,69.90
2018-05-29T02:12:54.970Z,69.80
2018-05-29T02:15:58.202Z,70.60
2018-05-29T02:19:00.663Z,70.50
2018-05-29T02:22:03.126Z,70.80
2018-05-29T02:25:06.342Z,71.00
2018-05-29T02:28:08.798Z,70.80
2018-05-29T02:31:11.255Z,70.80
2018-05-29T02:34:13.709Z,70.80
2018-05-29T02:37:16.194Z,70.80
2018-05-29T02:40:18.638Z,71.00
2018-05-29T02:43:21.093Z,71.00
2018-05-29T02:46:23.548Z,71.00
2018-05-29T02:49:26.778Z,71.70
2018-05-29T02:52:29.250Z,71.60
2018-05-29T02:55:31.706Z,71.60
2018-05-29T02:58:34.944Z,72.20
2018-05-29T03:01:37.390Z,72.10
2018-05-29T03:04:39.841Z,72.50
2018-05-29T03:07:43.081Z,73.80
2018-05-29T03:10:45.533Z,72.90
2018-05-29T03:13:48.757Z,72.80
2018-05-29T03:16:51.223Z,72.80
2018-05-29T03:19:53.705Z,72.80
2018-05-29T03:22:56.961Z,72.60
2018-05-29T03:26:00.214Z,72.00
2018-05-29T03:29:02.695Z,71.80
2018-05-29T03:32:05.172Z,72.00
2018-05-29T03:35:07.635Z,72.70
2018-05-29T03:38:10.103Z,73.40
2018-05-29T03:41:12.554Z,73.30
2018-05-29T03:44:15.791Z,72.90
2018-05-29T03:47:18.271Z,72.80
2018-05-29T03:50:20.733Z,72.40
2018-05-29T03:53:23.202Z,72.50
2018-05-29T03:56:25.669Z,72.90
2018-05-29T03:59:28.156Z,73.00
2018-05-29T04:02:30.626Z,73.00
2018-05-29T04:05:33.846Z,73.00
2018-05-29T04:08:36.314Z,73.00
2018-05-29T04:11:38.788Z,73.10
2018-05-29T04:14:41.257Z,73.20
2018-05-29T04:17:43.739Z,73.10
2018-05-29T04:20:46.178Z,72.90
2018-05-29T04:23:48.646Z,73.20
2018-05-29T04:26:51.085Z,73.20
2018-05-29T04:29:53.554Z,73.30
2018-05-29T04:32:56.018Z,73.30
2018-05-29T04:35:58.470Z,73.20
2018-05-29T04:39:00.943Z,72.90
2018-05-29T04:42:04.153Z,72.00
2018-05-29T04:45:06.610Z,72.70
2018-05-29T04:48:09.108Z,72.60
2018-05-29T04:51:11.557Z,71.80
2018-05-29T04:54:14.781Z,71.20
2018-05-29T04:57:17.238Z,71.10
2018-05-29T05:00:20.454Z,70.50
2018-05-29T05:03:22.911Z,70.40
2018-05-29T05:06:26.129Z,68.70
2018-05-29T05:09:28.585Z,68.70
2018-05-29T05:12:31.811Z,62.60
2018-05-29T05:15:34.264Z,62.50
2018-05-29T05:18:36.727Z,61.30
2018-05-29T05:21:39.945Z,55.30
2018-05-29T05:24:42.402Z,55.30
2018-05-29T05:27:45.621Z,50.00
2018-05-29T05:30:48.090Z,50.00
2018-05-29T05:33:50.573Z,47.60
2018-05-29T05:36:53.034Z,47.00
2018-05-29T05:39:55.505Z,45.50
2018-05-29T05:42:58.739Z,42.40
2018-05-29T05:46:01.219Z,42.30
2018-05-29T05:49:04.417Z,42.30
2018-05-29T05:52:06.878Z,41.70
2018-05-29T05:55:09.341Z,41.70
2018-05-29T05:58:11.811Z,42.20
2018-05-29T06:01:14.279Z,41.00
2018-05-29T06:04:17.503Z,39.40
2018-05-29T06:07:20.038Z,39.30
2018-05-29T06:10:23.461Z,38.60
2018-05-29T06:13:26.070Z,38.60
2018-05-29T06:16:28.529Z,38.40
2018-05-29T06:19:31.001Z,37.30
2018-05-29T06:22:33.461Z,37.60
2018-05-29T06:25:36.693Z,40.10
2018-05-29T06:28:39.165Z,40.10
2018-05-29T06:31:41.638Z,40.20
2018-05-29T06:34:44.090Z,40.40
2018-05-29T06:37:46.542Z,40.80
2018-05-29T06:40:49.001Z,41.40
2018-05-29T06:43:51.458Z,40.80
2018-05-29T06:46:54.165Z,40.60
2018-05-29T06:49:56.633Z,39.80
2018-05-29T06:52:59.101Z,39.00
2018-05-29T06:56:01.566Z,39.00
2018-05-29T06:59:04.041Z,38.50
2018-05-29T07:02:06.477Z,38.50
2018-05-29T07:05:09.705Z,37.30
2018-05-29T07:08:12.169Z,37.20
2018-05-29T07:11:14.617Z,38.20
2018-05-29T07:14:17.854Z,39.00
2018-05-29T07:17:20.305Z,39.00
2018-05-29T07:20:22.765Z,37.90
2018-05-29T07:23:26.004Z,37.70
2018-05-29T07:26:28.718Z,37.00
2018-05-29T07:29:31.177Z,37.30
2018-05-29T07:32:33.638Z,37.60
2018-05-29T07:35:36.098Z,37.10
2018-05-29T07:38:38.582Z,37.80
2018-05-29T07:41:41.029Z,37.70
2018-05-29T07:44:44.254Z,39.30
2018-05-29T07:47:46.724Z,39.20
2018-05-29T07:50:49.187Z,39.20
2018-05-29T07:53:52.422Z,38.80
2018-05-29T07:56:54.874Z,38.80
2018-05-29T07:59:57.344Z,40.70
2018-05-29T08:02:59.797Z,41.30
2018-05-29T08:06:03.043Z,38.90
2018-05-29T08:09:06.287Z,38.90
2018-05-29T08:12:08.731Z,39.90
2018-05-29T08:15:11.181Z,40.50
2018-05-29T08:18:13.650Z,40.50
2018-05-29T08:21:16.120Z,40.70
2018-05-29T08:24:18.586Z,39.50
2018-05-29T08:27:21.829Z,39.30
2018-05-29T08:30:24.289Z,39.30
2018-05-29T08:33:26.753Z,40.00
2018-05-29T08:36:29.226Z,41.80
2018-05-29T08:42:41.353Z,41.30
2018-05-29T08:45:43.895Z,41.20
2018-05-29T08:48:47.125Z,42.20
2018-05-29T08:51:49.604Z,42.90
2018-05-29T08:54:52.059Z,43.40
2018-05-29T08:57:55.282Z,42.20
2018-05-29T09:00:57.758Z,42.20
2018-05-29T09:04:00.262Z,42.20
2018-05-29T09:07:02.675Z,43.00
2018-05-29T09:10:05.925Z,42.70
2018-05-29T09:13:08.390Z,42.60
2018-05-29T09:16:10.854Z,42.20
2018-05-29T09:19:13.322Z,42.50
2018-05-29T09:22:15.774Z,43.40
2018-05-29T09:25:19.002Z,42.90
2018-05-29T09:28:21.606Z,42.90
2018-05-29T09:31:24.070Z,43.80
2018-05-29T09:34:26.548Z,44.40
2018-05-29T09:37:29.016Z,46.20
2018-05-29T09:40:32.216Z,46.30
2018-05-29T09:43:34.665Z,46.30
2018-05-29T09:46:37.138Z,46.60
2018-05-29T09:49:40.359Z,48.10
2018-05-29T09:52:42.806Z,48.00
2018-05-29T09:55:46.031Z,48.60
2018-05-29T09:58:48.490Z,48.50
2018-05-29T10:01:50.941Z,49.50
2018-05-29T10:04:53.401Z,49.30
2018-05-29T10:07:55.862Z,50.70
2018-05-29T10:10:58.316Z,51.20
2018-05-29T10:14:00.789Z,50.60
2018-05-29T10:17:03.261Z,50.50
2018-05-29T10:20:05.721Z,50.30
2018-05-29T10:23:08.177Z,50.50
2018-05-29T10:26:10.643Z,50.50
2018-05-29T10:29:13.102Z,50.10
2018-05-29T10:32:15.562Z,51.10
2018-05-29T10:35:18.026Z,51.10
2018-05-29T10:38:20.481Z,51.60
2018-05-29T10:41:22.954Z,50.90
2018-05-29T10:44:26.181Z,51.20
2018-05-29T10:47:28.642Z,51.20
2018-05-29T10:50:31.106Z,51.80
2018-05-29T10:53:33.554Z,50.30
2018-05-29T10:56:36.019Z,50.80
2018-05-29T10:59:38.473Z,50.90
2018-05-29T11:02:40.942Z,51.00
2018-05-29T11:05:43.409Z,52.00
2018-05-29T11:08:46.761Z,49.80
2018-05-29T11:11:49.226Z,49.80
2018-05-29T11:14:51.692Z,50.70
2018-05-29T11:17:54.149Z,50.90
2018-05-29T11:20:56.614Z,50.70
2018-05-29T11:23:59.065Z,51.10
2018-05-29T11:27:01.521Z,50.30
2018-05-29T11:30:03.986Z,50.20
2018-05-29T11:33:06.446Z,51.20
2018-05-29T11:36:08.911Z,51.80
2018-05-29T11:39:11.362Z,51.20
2018-05-29T11:42:13.813Z,51.40
2018-05-29T11:45:17.045Z,52.20
2018-05-29T11:48:19.510Z,52.20
2018-05-29T11:51:21.966Z,51.70
2018-05-29T11:54:35.881Z,52.40
2018-05-29T11:57:38.330Z,52.40
2018-05-29T12:00:40.854Z,51.50
2018-05-29T12:03:43.253Z,50.80
2018-05-29T12:06:45.713Z,51.70
2018-05-29T12:09:48.943Z,52.60
2018-05-29T12:12:51.415Z,52.50
2018-05-29T12:15:53.882Z,51.20
2018-05-29T12:18:56.337Z,52.30
2018-05-29T12:21:59.562Z,51.90
2018-05-29T12:25:02.034Z,51.80
2018-05-29T12:28:04.490Z,51.70
2018-05-29T12:31:07.751Z,52.30
2018-05-29T12:34:10.313Z,52.20
2018-05-29T12:37:12.774Z,50.80
2018-05-29T12:40:15.272Z,49.60
2018-05-29T12:43:17.698Z,50.20
2018-05-29T12:46:20.941Z,50.20
2018-05-29T12:49:23.370Z,50.10
2018-05-29T12:52:26.605Z,50.00
2018-05-29T12:55:29.062Z,50.00
2018-05-29T12:58:31.517Z,48.70
2018-05-29T13:01:34.758Z,49.40
2018-05-29T13:04:37.214Z,49.40
2018-05-29T13:07:39.689Z,49.40
2018-05-29T13:10:42.195Z,49.80
2018-05-29T13:13:44.626Z,50.60
2018-05-29T13:16:47.125Z,48.90
2018-05-29T13:19:50.325Z,49.80
2018-05-29T13:22:52.785Z,49.70
2018-05-29T13:25:55.262Z,49.10
2018-05-29T13:28:57.711Z,48.50
2018-05-29T13:32:00.949Z,50.30
2018-05-29T13:35:03.425Z,49.90
2018-05-29T13:38:05.878Z,49.50
2018-05-29T13:41:08.337Z,48.20
2018-05-29T13:44:11.570Z,49.20
2018-05-29T13:47:14.042Z,49.10
2018-05-29T13:50:16.499Z,49.90
2018-05-29T13:53:18.953Z,49.70
2018-05-29T13:56:21.422Z,49.80
2018-05-29T13:59:23.866Z,51.00
2018-05-29T14:02:26.323Z,50.90
2018-05-29T14:05:28.777Z,50.60
2018-05-29T14:08:31.989Z,50.00
2018-05-29T14:11:34.450Z,50.00
2018-05-29T14:14:37.692Z,50.10
2018-05-29T14:17:40.142Z,50.10
2018-05-29T14:20:42.642Z,51.10
2018-05-29T14:23:45.065Z,51.60
2018-05-29T14:26:48.298Z,52.30
2018-05-29T14:29:50.742Z,52.30
2018-05-29T14:32:53.969Z,52.80
2018-05-29T14:35:56.427Z,52.70
2018-05-29T14:38:58.881Z,52.80
2018-05-29T14:42:02.106Z,53.00
2018-05-29T14:45:04.569Z,53.00
2018-05-29T14:48:07.037Z,52.80
2018-05-29T14:51:10.261Z,53.70
2018-05-29T14:54:12.734Z,53.70
2018-05-29T14:57:15.193Z,54.20
2018-05-29T15:00:18.415Z,54.00
2018-05-29T15:03:20.881Z,54.00
2018-05-29T15:06:23.353Z,53.70
2018-05-29T15:09:25.814Z,53.20
2018-05-29T15:12:29.049Z,54.50
2018-05-29T15:15:31.502Z,54.50
2018-05-29T15:18:34.011Z,54.40
2018-05-29T15:21:37.190Z,54.60
2018-05-29T15:24:39.674Z,54.60
2018-05-29T15:27:42.109Z,55.30
2018-05-29T15:30:45.341Z,54.50
2018-05-29T15:33:47.800Z,54.40
2018-05-29T15:36:50.262Z,54.90
2018-05-29T15:39:52.714Z,54.50
2018-05-29T15:42:55.174Z,55.10
2018-05-29T15:45:57.660Z,54.70
2018-05-29T15:49:00.125Z,55.20
2018-05-29T15:52:02.599Z,55.00
2018-05-29T15:55:05.061Z,55.40
2018-05-29T15:58:07.529Z,55.20
2018-05-29T16:01:09.998Z,56.00
2018-05-29T16:04:12.450Z,55.80
2018-05-29T16:07:14.909Z,55.70
2018-05-29T16:10:17.366Z,55.50
2018-05-29T16:13:19.826Z,55.90
2018-05-29T16:16:23.265Z,56.10
2018-05-29T16:19:26.498Z,55.60
2018-05-29T16:22:29.001Z,55.60
2018-05-29T16:25:31.465Z,55.90
2018-05-29T16:28:33.940Z,56.00
2018-05-29T16:31:36.397Z,55.90
2018-05-29T16:34:38.860Z,56.50
2018-05-29T16:37:42.070Z,57.10
2018-05-29T16:40:44.556Z,57.10
2018-05-29T16:43:47.751Z,57.50
2018-05-29T16:46:50.217Z,57.50
2018-05-29T16:49:52.669Z,57.50
2018-05-29T16:52:55.893Z,57.20
2018-05-29T16:55:58.350Z,57.10
2018-05-29T16:59:01.571Z,57.10
2018-05-29T17:02:04.037Z,57.00
2018-05-29T17:05:08.418Z,56.80
2018-05-29T17:08:11.830Z,57.00
2018-05-29T17:11:15.064Z,57.80
2018-05-29T17:14:17.509Z,57.80
2018-05-29T17:17:20.739Z,58.70
2018-05-29T17:20:23.197Z,58.70
2018-05-29T17:23:25.661Z,59.10
2018-05-29T17:26:28.891Z,59.40
2018-05-29T17:29:31.350Z,59.30
2018-05-29T17:32:33.813Z,59.60
2018-05-29T17:35:36.302Z,61.40
2018-05-29T17:38:38.761Z,62.70
2018-05-29T17:41:41.986Z,63.60
2018-05-29T17:44:44.449Z,63.60
2018-05-29T17:47:46.918Z,63.30
2018-05-29T17:50:49.375Z,63.20
2018-05-29T17:53:51.825Z,63.20
2018-05-29T17:56:56.277Z,63.70
2018-05-29T17:59:59.502Z,64.30
2018-05-29T18:03:01.963Z,64.10
2018-05-29T18:06:04.414Z,63.60
2018-05-29T18:09:06.912Z,64.00
2018-05-29T18:12:09.357Z,64.30
2018-05-29T18:15:11.795Z,64.50
2018-05-29T18:18:14.262Z,64.80
2018-05-29T18:21:16.738Z,65.80
2018-05-29T18:24:19.188Z,66.70
2018-05-29T18:27:22.414Z,68.60
2018-05-29T18:30:24.861Z,68.50
2018-05-29T18:33:28.106Z,69.50
2018-05-29T18:36:30.569Z,69.50
2018-05-29T18:39:33.023Z,69.70
2018-05-29T18:42:35.477Z,68.70
2018-05-29T18:45:38.702Z,69.00
2018-05-29T18:48:41.157Z,68.90
2018-05-29T18:51:44.398Z,70.50
2018-05-29T18:54:46.849Z,70.40
2018-05-29T18:57:49.302Z,71.30
2018-05-29T19:00:51.765Z,71.10
2018-05-29T19:03:54.223Z,70.80
2018-05-29T19:06:56.693Z,70.10
2018-05-29T19:09:59.142Z,70.20
2018-05-29T19:13:01.606Z,69.50
2018-05-29T19:16:04.061Z,69.40
2018-05-29T19:19:07.294Z,72.40
2018-05-29T19:22:09.757Z,72.20
2018-05-29T19:25:12.216Z,72.40
2018-05-29T19:28:15.445Z,63.70
2018-05-29T19:31:17.907Z,63.60
2018-05-29T19:34:20.370Z,61.00
2018-05-29T19:37:22.822Z,61.20
2018-05-29T19:40:43.693Z,62.30
2018-05-29T19:43:46.153Z,61.70
2018-05-29T19:46:48.591Z,63.30
2018-05-29T19:49:51.814Z,69.30
2018-05-29T19:52:54.274Z,69.20
2018-05-29T19:55:57.485Z,71.00
2018-05-29T19:58:59.946Z,71.00
2018-05-29T20:02:03.164Z,72.20
2018-05-29T20:05:05.630Z,72.20
2018-05-29T20:08:16.030Z,73.10
2018-05-29T20:11:25.161Z,73.20
2018-05-29T20:14:27.622Z,73.30
2018-05-29T20:17:30.986Z,71.90
2018-05-29T20:20:34.192Z,70.40
2018-05-29T20:23:50.802Z,70.40
2018-05-29T20:26:53.245Z,69.80
2018-05-29T20:29:55.697Z,71.70
2018-05-29T20:32:58.166Z,75.70
2018-05-29T20:36:00.634Z,78.50
2018-05-29T20:39:03.113Z,79.10
2018-05-29T20:42:05.569Z,78.10
2018-05-29T20:45:08.029Z,79.70
2018-05-29T20:48:10.490Z,79.20
2018-05-29T20:51:13.718Z,80.80
2018-05-29T20:54:16.174Z,79.90
2018-05-29T20:57:25.281Z,83.10
2018-05-29T21:00:27.754Z,83.00
2018-05-29T21:03:30.877Z,85.30
2018-05-29T21:06:33.334Z,86.30
2018-05-29T21:09:35.803Z,85.50
2018-05-29T21:12:38.257Z,86.80
2018-05-29T21:15:40.722Z,88.40
2018-05-29T21:18:43.186Z,89.10
2018-05-29T21:21:45.956Z,89.30
2018-05-29T21:24:53.423Z,90.00
2018-05-29T21:27:55.887Z,89.50
2018-05-29T21:30:58.338Z,90.50
2018-05-29T21:34:00.790Z,91.00
2018-05-29T21:37:03.245Z,91.20
2018-05-29T21:40:06.473Z,91.30
2018-05-29T21:43:08.937Z,91.30
2018-05-29T21:46:11.392Z,91.90
2018-05-29T21:49:14.614Z,92.70
2018-05-29T21:52:17.082Z,92.60
2018-05-29T21:55:19.530Z,93.20
2018-05-29T21:58:22.757Z,93.20
2018-05-29T22:01:25.230Z,93.10
2018-05-29T22:04:27.685Z,93.60
2018-05-29T22:07:30.913Z,92.50
2018-05-29T22:10:33.375Z,92.50
2018-05-29T22:13:35.833Z,92.80
2018-05-29T22:16:39.045Z,93.70
2018-05-29T22:19:41.502Z,93.70
2018-05-29T22:22:44.725Z,93.10
2018-05-29T22:25:47.191Z,93.10
2018-05-29T22:28:49.671Z,92.70
2018-05-29T22:31:52.122Z,93.10
2018-05-29T22:34:55.362Z,93.20
2018-05-29T22:37:57.817Z,93.20
2018-05-29T22:41:00.282Z,93.30
2018-05-29T22:44:02.742Z,92.90
2018-05-29T22:47:05.973Z,93.10
2018-05-29T22:50:08.434Z,93.10
2018-05-29T22:53:10.885Z,93.10
2018-05-29T22:56:13.345Z,93.00
2018-05-29T22:59:15.824Z,93.30
2018-05-29T23:02:18.271Z,93.80
2018-05-29T23:05:20.733Z,93.80
2018-05-29T23:08:23.205Z,94.50
2018-05-29T23:11:27.672Z,94.00
2018-05-29T23:14:30.155Z,94.10
2018-05-29T23:17:32.634Z,94.30
2018-05-29T23:20:35.075Z,94.40
2018-05-29T23:23:37.544Z,94.20
2018-05-29T23:26:39.990Z,94.00
2018-05-29T23:29:42.446Z,94.10
2018-05-29T23:32:44.895Z,94.50
2018-05-29T23:35:47.366Z,93.60
2018-05-29T23:38:50.203Z,93.10
2018-05-29T23:41:52.650Z,93.90
2018-05-29T23:44:55.125Z,94.40
2018-05-29T23:47:57.589Z,94.70
2018-05-29T23:51:00.037Z,94.30
2018-05-29T23:54:02.547Z,94.30
2018-05-29T23:57:05.044Z,94.40
